createdAt,value
2022-09-25T00:02:09.809Z,61.64
2022-09-25T00:07:12.719Z,61.67
2022-09-25T00:12:15.632Z,61.98
2022-09-25T00:17:18.472Z,61.70
2022-09-25T00:22:24.953Z,61.99
2022-09-25T00:27:27.852Z,61.88
2022-09-25T00:32:31.042Z,62.00
2022-09-25T00:37:35.572Z,61.80
2022-09-25T00:42:38.514Z,61.83
2022-09-25T00:48:10.761Z,61.46
2022-09-25T00:53:38.464Z,61.38
2022-09-25T00:58:42.312Z,61.85
2022-09-25T01:03:46.470Z,61.80
2022-09-25T01:08:50.042Z,61.87
2022-09-25T01:13:55.660Z,62.09
2022-09-25T01:19:14.150Z,62.08
2022-09-25T01:24:25.570Z,62.23
2022-09-25T01:29:36.967Z,62.18
2022-09-25T01:34:56.758Z,62.15
2022-09-25T01:40:33.529Z,62.14
2022-09-25T01:45:59.693Z,61.95
2022-09-25T01:51:08.415Z,62.16
2022-09-25T01:56:20.523Z,62.23
2022-09-25T02:01:29.361Z,62.18
2022-09-25T02:06:33.347Z,62.45
2022-09-25T02:11:42.924Z,62.19
2022-09-25T02:16:50.271Z,62.56
2022-09-25T02:22:05.512Z,62.74
2022-09-25T02:27:08.348Z,62.96
2022-09-25T02:32:17.417Z,63.18
2022-09-25T02:37:20.364Z,62.99
2022-09-25T02:42:55.487Z,63.17
2022-09-25T02:48:32.481Z,63.09
2022-09-25T02:53:41.987Z,62.85
2022-09-25T02:58:51.107Z,62.54
2022-09-25T03:03:57.569Z,62.79
2022-09-25T03:09:02.667Z,63.21
2022-09-25T03:14:06.105Z,63.01
2022-09-25T03:19:09.084Z,63.19
2022-09-25T03:24:12.185Z,63.41
2022-09-25T03:29:17.456Z,63.33
2022-09-25T03:34:21.601Z,63.25
2022-09-25T03:39:24.493Z,63.44
2022-09-25T03:44:27.335Z,63.55
2022-09-25T03:49:30.130Z,63.53
2022-09-25T03:54:32.935Z,63.46
2022-09-25T03:59:35.877Z,63.69
2022-09-25T04:04:39.008Z,63.60
2022-09-25T04:09:41.888Z,63.70
2022-09-25T04:14:46.071Z,63.67
2022-09-25T04:19:49.382Z,63.63
2022-09-25T04:24:52.530Z,63.72
2022-09-25T04:29:55.547Z,63.82
2022-09-25T04:34:58.641Z,63.33
2022-09-25T04:40:01.887Z,63.72
2022-09-25T04:45:05.028Z,63.54
2022-09-25T04:50:08.386Z,63.73
2022-09-25T04:55:11.404Z,65.76
2022-09-25T05:00:18.775Z,64.59
2022-09-25T05:05:21.844Z,63.53
2022-09-25T05:10:27.850Z,63.50
2022-09-25T05:15:33.230Z,63.83
2022-09-25T05:20:36.350Z,63.26
2022-09-25T05:25:39.257Z,63.70
2022-09-25T05:30:43.774Z,63.94
2022-09-25T05:35:46.976Z,64.15
2022-09-25T05:40:50.295Z,64.29
2022-09-25T05:45:54.994Z,64.38
2022-09-25T05:50:58.689Z,64.26
2022-09-25T05:56:03.774Z,64.47
2022-09-25T06:01:07.177Z,64.59
2022-09-25T06:06:10.441Z,64.67
2022-09-25T06:11:13.338Z,64.31
2022-09-25T06:16:19.662Z,64.51
2022-09-25T06:21:22.707Z,64.60
2022-09-25T06:26:26.158Z,64.88
2022-09-25T06:31:29.113Z,64.94
2022-09-25T06:36:33.278Z,64.99
2022-09-25T06:41:36.824Z,64.95
2022-09-25T06:46:39.775Z,64.61
2022-09-25T06:51:42.787Z,64.73
2022-09-25T06:56:49.969Z,64.48
2022-09-25T07:01:53.068Z,64.35
2022-09-25T07:06:58.613Z,65.73
2022-09-25T07:12:01.829Z,64.61
2022-09-25T07:17:04.753Z,64.06
2022-09-25T07:22:07.649Z,63.90
2022-09-25T07:27:10.510Z,63.82
2022-09-25T07:32:13.322Z,63.81
2022-09-25T07:37:17.029Z,63.52
2022-09-25T07:42:19.914Z,63.40
2022-09-25T07:47:22.791Z,63.41
2022-09-25T07:52:25.727Z,63.44
2022-09-25T07:57:28.628Z,63.49
2022-09-25T08:02:32.002Z,63.36
2022-09-25T08:07:34.934Z,63.25
2022-09-25T08:12:37.809Z,63.29
2022-09-25T08:17:41.411Z,63.17
2022-09-25T08:22:44.233Z,63.17
2022-09-25T08:27:47.187Z,62.79
2022-09-25T08:32:50.536Z,62.28
2022-09-25T08:37:53.890Z,62.04
2022-09-25T08:42:57.597Z,61.75
2022-09-25T08:48:19.761Z,61.92
2022-09-25T08:53:26.378Z,61.99
2022-09-25T08:58:32.200Z,62.28
2022-09-25T09:03:46.272Z,62.45
2022-09-25T09:09:14.397Z,62.55
2022-09-25T09:14:20.680Z,62.89
2022-09-25T09:19:23.678Z,62.91
2022-09-25T09:24:53.866Z,63.47
2022-09-25T09:30:23.982Z,63.06
2022-09-25T09:35:52.441Z,63.05
2022-09-25T09:41:31.087Z,63.02
2022-09-25T09:46:57.461Z,63.12
2022-09-25T09:52:11.369Z,63.07
2022-09-25T09:57:26.664Z,63.07
2022-09-25T10:02:51.294Z,63.17
2022-09-25T10:07:54.496Z,63.23
2022-09-25T10:13:04.069Z,63.45
2022-09-25T10:18:09.462Z,63.54
2022-09-25T10:23:33.751Z,63.43
2022-09-25T10:28:36.925Z,63.65
2022-09-25T10:33:39.859Z,63.83
2022-09-25T10:38:53.446Z,63.70
2022-09-25T10:44:02.545Z,63.74
2022-09-25T10:49:33.513Z,63.50
2022-09-25T10:54:43.654Z,63.38
2022-09-25T10:59:52.228Z,63.34
2022-09-25T11:04:57.171Z,63.35
2022-09-25T11:10:00.617Z,63.32
2022-09-25T11:15:08.977Z,63.35
2022-09-25T11:20:30.233Z,63.43
2022-09-25T11:25:48.749Z,63.66
2022-09-25T11:31:22.626Z,63.53
2022-09-25T11:36:31.912Z,63.47
2022-09-25T11:41:43.948Z,63.22
2022-09-25T11:47:11.859Z,63.09
2022-09-25T11:52:37.360Z,63.19
2022-09-25T11:57:56.610Z,63.45
2022-09-25T12:03:20.531Z,63.38
2022-09-25T12:08:26.937Z,63.20
2022-09-25T12:13:41.598Z,63.50
2022-09-25T12:19:03.205Z,63.76
2022-09-25T12:24:17.876Z,63.49
2022-09-25T12:29:26.191Z,63.26
2022-09-25T12:34:34.602Z,63.38
2022-09-25T12:39:44.849Z,63.10
2022-09-25T12:45:02.037Z,62.87
2022-09-25T12:50:17.008Z,62.86
2022-09-25T12:55:26.795Z,62.75
2022-09-25T13:00:33.026Z,62.35
2022-09-25T13:05:50.359Z,62.42
2022-09-25T13:11:02.456Z,62.43
2022-09-25T13:16:05.806Z,62.32
2022-09-25T13:21:26.152Z,62.19
2022-09-25T13:26:30.362Z,62.13
2022-09-25T13:31:37.169Z,61.99
2022-09-25T13:36:53.587Z,61.94
2022-09-25T13:41:57.008Z,61.58
2022-09-25T13:47:22.089Z,61.56
2022-09-25T13:52:36.868Z,61.56
2022-09-25T13:57:58.441Z,61.53
2022-09-25T14:03:03.282Z,61.59
2022-09-25T14:08:15.973Z,61.42
2022-09-25T14:13:25.404Z,61.89
2022-09-25T14:18:44.023Z,61.52
2022-09-25T14:23:52.306Z,61.92
2022-09-25T14:28:57.297Z,61.94
2022-09-25T14:34:41.338Z,61.99
2022-09-25T14:40:02.338Z,61.91
2022-09-25T14:45:34.936Z,62.21
2022-09-25T14:50:45.805Z,62.40
2022-09-25T14:55:53.094Z,62.29
2022-09-25T15:01:02.087Z,62.65
2022-09-25T15:06:05.136Z,62.88
2022-09-25T15:11:16.385Z,63.00
2022-09-25T15:16:44.034Z,63.22
2022-09-25T15:21:47.695Z,63.06
2022-09-25T15:27:03.078Z,63.06
2022-09-25T15:32:06.621Z,63.16
2022-09-25T15:37:29.479Z,63.03
2022-09-25T15:42:33.124Z,63.18
2022-09-25T15:47:35.907Z,63.13
2022-09-25T15:52:39.305Z,63.33
2022-09-25T15:57:42.443Z,63.62
2022-09-25T16:03:17.333Z,63.45
2022-09-25T16:08:36.921Z,63.54
2022-09-25T16:13:43.750Z,63.47
2022-09-25T16:18:47.075Z,63.50
2022-09-25T16:24:07.557Z,63.58
2022-09-25T16:29:11.521Z,63.58
2022-09-25T16:34:39.108Z,63.77
2022-09-25T16:39:43.680Z,64.25
2022-09-25T16:44:47.236Z,64.21
2022-09-25T16:49:50.549Z,64.08
2022-09-25T16:54:57.023Z,64.45
2022-09-25T17:00:00.018Z,64.21
2022-09-25T17:05:11.151Z,64.50
2022-09-25T17:10:16.508Z,64.46
2022-09-25T17:15:27.628Z,64.60
2022-09-25T17:20:31.316Z,64.57
2022-09-25T17:25:45.857Z,64.70
2022-09-25T17:30:48.822Z,64.52
2022-09-25T17:36:04.196Z,64.65
2022-09-25T17:41:34.125Z,64.75
2022-09-25T17:46:37.380Z,64.83
2022-09-25T17:51:40.922Z,64.89
2022-09-25T17:56:45.473Z,65.14
2022-09-25T18:01:48.459Z,65.26
2022-09-25T18:06:52.192Z,64.91
2022-09-25T18:11:55.187Z,65.08
2022-09-25T18:16:58.307Z,65.02
2022-09-25T18:22:21.897Z,65.20
2022-09-25T18:27:27.805Z,65.20
2022-09-25T18:32:31.785Z,65.37
2022-09-25T18:37:35.131Z,65.63
2022-09-25T18:42:38.440Z,65.56
2022-09-25T18:47:42.540Z,65.59
2022-09-25T18:52:45.668Z,65.77
2022-09-25T18:57:48.667Z,65.83
2022-09-25T19:02:51.657Z,65.98
2022-09-25T19:07:54.963Z,65.74
2022-09-25T19:12:57.929Z,66.81
2022-09-25T19:18:00.792Z,66.09
2022-09-25T19:23:03.760Z,65.55
2022-09-25T19:28:07.951Z,65.53
2022-09-25T19:33:10.858Z,65.61
2022-09-25T19:38:13.769Z,65.43
2022-09-25T19:43:16.829Z,65.53
2022-09-25T19:48:20.981Z,65.76
2022-09-25T19:53:23.852Z,65.66
2022-09-25T19:58:26.723Z,65.82
2022-09-25T20:03:29.934Z,65.80
2022-09-25T20:08:33.413Z,65.95
2022-09-25T20:13:36.336Z,65.97
2022-09-25T20:18:39.480Z,66.18
2022-09-25T20:23:42.572Z,66.26
2022-09-25T20:28:46.549Z,66.38
2022-09-25T20:33:49.561Z,66.28
2022-09-25T20:38:54.134Z,66.64
2022-09-25T20:43:58.069Z,66.68
2022-09-25T20:49:02.376Z,66.25
2022-09-25T20:54:07.550Z,66.23
2022-09-25T20:59:11.387Z,66.31
2022-09-25T21:04:18.271Z,66.20
2022-09-25T21:09:24.122Z,66.24
2022-09-25T21:14:28.571Z,66.34
2022-09-25T21:19:31.947Z,66.31
2022-09-25T21:24:35.946Z,66.18
2022-09-25T21:29:39.251Z,66.39
2022-09-25T21:34:42.185Z,66.29
2022-09-25T21:39:45.025Z,66.15
2022-09-25T21:44:48.110Z,66.30
2022-09-25T21:49:51.112Z,66.30
2022-09-25T21:54:54.721Z,66.20
2022-09-25T21:59:57.564Z,66.14
2022-09-25T22:05:02.178Z,66.15
2022-09-25T22:10:07.138Z,66.12
2022-09-25T22:15:10.437Z,66.16
2022-09-25T22:20:13.729Z,66.20
2022-09-25T22:25:16.700Z,66.44
2022-09-25T22:30:19.786Z,66.52
2022-09-25T22:35:22.725Z,66.61
2022-09-25T22:40:25.653Z,66.82
2022-09-25T22:45:29.377Z,66.89
2022-09-25T22:50:32.245Z,66.99
2022-09-25T22:55:35.094Z,67.03
2022-09-25T23:00:42.983Z,67.07
2022-09-25T23:05:47.553Z,66.86
2022-09-25T23:11:06.638Z,66.79
2022-09-25T23:16:12.948Z,66.82
2022-09-25T23:21:16.856Z,66.74
2022-09-25T23:26:20.392Z,66.65
2022-09-25T23:31:27.147Z,66.74
2022-09-25T23:36:32.705Z,66.78
2022-09-25T23:41:39.838Z,66.65
2022-09-25T23:46:46.231Z,66.78
2022-09-25T23:51:51.826Z,66.74
2022-09-25T23:56:57.765Z,66.88
